• Join FlightAware (Why Join?)
  • Login
  • US Flag 
06:15PM EST


 

Airport Tracker/Info


-or-


 

Live Flight TrackerFlight Track Log ✈ SWA1718 ✈ 18-Apr-2013 ✈ KMDW - KBUF

Flight Track Log - Related Links

Times and Time Zones

All times are in EDT time to prevent confusion due to time zone crossing. See the SWA1718 flight status page for this flight to view local times or setup timezone preferences in your user account.

Time Position Orientation Groundspeed Altitude Reporting Facility
EDT Latitude Longitude Course Direction KTS MPH feet Rate Location/Type
11:30PM 41.8167 -87.7833 340° North 222 255 3,000  Level Chicago TRACON
11:31PM 41.8000 -87.6833 103° East 249 287 3,200 1,080 Climbing Chicago TRACON
11:32PM 41.8044 -87.6158 85° East 250 288 5,000 3,000 Climbing Chicago Center
11:33PM 41.7958 -87.5069 96° East 279 321 8,900 3,360 Climbing Chicago Center
11:34PM 41.7864 -87.3958 96° East 300 345 11,900 2,880 Climbing Chicago Center
11:35PM 41.7781 -87.2664 95° East 346 398 14,900 3,300 Climbing Chicago Center
11:36PM 41.7664 -87.1308 97° East 364 419 18,700 3,120 Climbing Chicago Center
11:37PM 41.7625 -86.9931 92° East 373 429 21,300 2,340 Climbing Chicago Center
11:38PM 41.7647 -86.8378 89° East 415 478 23,500 2,160 Climbing Chicago Center
11:39PM 41.7658 -86.6819 89° East 434 499 25,800 2,340 Climbing Chicago Center
11:40PM 41.7667 -86.4803 90° East 451 519 28,300 1,560 Climbing Chicago Center
11:41PM 41.7706 -86.3061 88° East 466 536 29,000 300 Climbing Chicago Center
11:42PM 41.8022 -86.1206 77° East 506 582 29,000  Level Chicago Center
11:43PM 41.8342 -85.9358 77° East 509 586 29,000  Level Chicago Center
11:44PM 41.8658 -85.7492 77° East 511 588 29,000  Level Chicago Center
11:45PM 41.8972 -85.5592 77° East 514 592 29,000  Level Chicago Center
11:46PM 41.9292 -85.3714 77° East 510 587 29,000  Level Chicago Center
11:47PM 41.9517 -85.1839 81° East 503 579 29,000  Level Chicago Center
11:48PM 41.9500 -84.9953 91° East 502 578 29,000  Level Chicago Center
11:49PM 41.9497 -84.8117 90° East 494 568 29,000  Level Chicago Center
11:50PM 41.9508 -84.6281 89° East 493 567 29,000 -540 Level Chicago Center
11:51PM 41.9733 -84.4400 81° East 497 572 28,000 -960 Descending Chicago Center
11:52PM 41.9933 -84.2406 82° East 493 567 27,000 -480 Descending Cleveland Center
11:53PM 42.0156 -84.0658 80° East 480 552 27,000  Level Cleveland Center
11:54PM 42.0353 -83.8906 81° East 480 552 27,000  Level Cleveland Center
11:55PM 42.0567 -83.7183 80° East 480 552 27,000  Level Cleveland Center
11:56PM 42.0806 -83.5264 80° East 475 547 27,000  Level Cleveland Center
11:57PM 42.1017 -83.3511 81° East 475 547 27,000  Level Cleveland Center
11:58PM 42.1183 -83.1781 83° East 468 539 27,000  Level Cleveland Center
11:59PM 42.1386 -83.0053 81° East 468 539 27,000  Level Cleveland Center
12:00AM 42.1589 -82.8325 81° East 462 532 27,000  Level Cleveland Center
12:01AM 42.1767 -82.6594 82° East 462 532 27,000  Level Cleveland Center
12:02AM 42.1942 -82.4889 82° East 462 532 27,000 -600 Level Cleveland Center
12:03AM 42.2136 -82.3186 81° East 462 532 25,900 -1,020 Descending Cleveland Center
12:04AM 42.2308 -82.1450 82° East 462 532 25,000 -480 Descending Cleveland Center
12:05AM 42.2472 -81.9969 81° East 456 525 25,000  Level Cleveland Center
12:06AM 42.2636 -81.8344 82° East 448 516 25,000  Level Cleveland Center
12:07AM 42.2822 -81.6497 82° East 442 509 25,000  Level Cleveland Center
12:08AM 42.2961 -81.4869 83° East 442 509 25,000  Level Cleveland Center
12:09AM 42.3119 -81.3244 82° East 442 509 25,000  Level Cleveland Center
12:10AM 42.3294 -81.1617 82° East 442 509 25,000  Level Cleveland Center
12:11AM 42.3447 -80.9933 83° East 442 509 25,000  Level Cleveland Center
12:12AM 42.3600 -80.8278 83° East 442 509 25,000  Level Cleveland Center
12:13AM 42.3769 -80.6647 82° East 442 509 25,000  Level Cleveland Center
12:14AM 42.4164 -80.5242 69° East 442 509 25,000  Level Cleveland Center
12:15AM 42.4683 -80.3692 66° East 442 509 25,000 -1,080 Level Cleveland Center
12:16AM 42.5139 -80.2169 68° East 442 509 22,900 -2,160 Descending Cleveland Center
12:17AM 42.5633 -80.0703 65° Northeast 437 503 20,700 -2,100 Descending Cleveland Center
12:18AM 42.6125 -79.9203 66° East 432 497 18,700 -2,220 Descending Cleveland Center
12:19AM 42.6594 -79.7758 66° East 427 491 16,300 -2,340 Descending Cleveland Center
12:20AM 42.7064 -79.6256 67° East 427 491 14,100 -2,160 Descending Cleveland Center
12:21AM 42.7489 -79.4833 68° East 414 476 12,000 -1,920 Descending Cleveland Center
12:22AM 42.7892 -79.3497 68° East 396 456 10,300 -1,020 Descending Cleveland Center
12:23AM 42.8358 -79.2328 61° Northeast 361 415 10,000 -600 Descending Cleveland Center
12:24AM 42.8928 -79.1097 58° Northeast 338 389 9,200 -1,140 Descending Cleveland Center
12:25AM 42.9433 -79.0006 58° Northeast 332 382 7,800 -1,500 Descending Cleveland Center
12:26AM 42.9900 -78.9058 56° Northeast 326 375 6,300 -1,500 Descending Cleveland Center
12:27AM 43.0333 -78.8000 61° Northeast 317 365 5,000 -1,920 Descending Buffalo TRACON
12:28AM 43.0500 -78.7000 77° East 282 325 2,700 -1,320 Descending Buffalo TRACON
12:29AM 43.0167 -78.6500 132° Southeast 163 188 2,400 -540 Descending Buffalo TRACON
12:30AM 42.9833 -78.6667 200° South 105 121 1,700 -720 Descending Buffalo TRACON
12:31AM 42.9500 -78.7000 216° Southwest 118 136 1,000 -720 Descending Buffalo TRACON